createdAt,value
2023-08-14T00:00:01.465Z,18.93
2023-08-14T00:07:02.283Z,18.78
2023-08-14T00:14:02.128Z,18.78
2023-08-14T00:21:01.967Z,18.59
2023-08-14T00:28:01.335Z,18.59
2023-08-14T00:35:01.468Z,18.57
2023-08-14T00:42:01.837Z,18.32
2023-08-14T00:49:01.393Z,18.32
2023-08-14T00:56:01.802Z,18.19
2023-08-14T01:00:02.181Z,18.19
2023-08-14T01:07:04.611Z,18.16
2023-08-14T01:14:01.783Z,18.16
2023-08-14T01:21:01.296Z,17.98
2023-08-14T01:28:01.456Z,17.98
2023-08-14T01:35:01.625Z,17.85
2023-08-14T01:42:01.818Z,17.85
2023-08-14T01:49:02.013Z,17.71
2023-08-14T01:56:01.448Z,17.71
2023-08-14T02:00:01.839Z,17.61
2023-08-14T02:07:02.078Z,17.61
2023-08-14T02:14:02.102Z,17.43
2023-08-14T02:21:02.172Z,17.43
2023-08-14T02:28:01.843Z,17.49
2023-08-14T02:35:01.292Z,17.49
2023-08-14T02:42:02.168Z,17.41
2023-08-14T02:49:02.250Z,17.41
2023-08-14T02:56:02.115Z,17.3
2023-08-14T03:00:01.456Z,17.3
2023-08-14T03:07:01.376Z,17.09
2023-08-14T03:14:01.472Z,17.09
2023-08-14T03:21:01.841Z,17.07
2023-08-14T03:28:01.906Z,17.07
2023-08-14T03:35:02.180Z,16.96
2023-08-14T03:42:01.993Z,16.9
2023-08-14T03:49:01.784Z,16.9
2023-08-14T03:56:01.404Z,16.9
2023-08-14T04:00:01.796Z,16.9
2023-08-14T04:07:01.438Z,16.88
2023-08-14T04:14:01.814Z,16.88
2023-08-14T04:21:01.847Z,16.82
2023-08-14T04:28:01.852Z,16.82
2023-08-14T04:35:01.576Z,16.72
2023-08-14T04:42:01.797Z,16.72
2023-08-14T04:49:01.574Z,16.58
2023-08-14T04:56:01.509Z,16.58
2023-08-14T05:00:02.006Z,16.63
2023-08-14T05:07:02.027Z,16.63
2023-08-14T05:14:02.034Z,16.62
2023-08-14T05:21:01.833Z,16.62
2023-08-14T05:28:01.308Z,16.66
2023-08-14T05:35:02.272Z,16.66
2023-08-14T05:42:01.556Z,16.78
2023-08-14T05:49:02.248Z,16.78
2023-08-14T05:56:02.227Z,16.88
2023-08-14T06:00:01.564Z,16.88
2023-08-14T06:07:02.028Z,16.97
2023-08-14T06:14:02.119Z,16.97
2023-08-14T06:21:02.278Z,17.11
2023-08-14T06:28:01.759Z,17.11
2023-08-14T06:35:01.328Z,17.26
2023-08-14T06:42:01.430Z,17.45
2023-08-14T06:49:01.689Z,17.45
2023-08-14T06:56:02.159Z,17.52
2023-08-14T07:00:01.524Z,17.52
2023-08-14T07:07:01.806Z,17.52
2023-08-14T07:14:02.297Z,17.8
2023-08-14T07:21:01.383Z,17.87
2023-08-14T07:28:01.807Z,17.87
2023-08-14T07:35:01.513Z,18.11
2023-08-14T07:42:02.192Z,18.11
2023-08-14T07:49:02.091Z,18.25
2023-08-14T07:56:01.753Z,18.25
2023-08-14T08:00:02.146Z,18.39
2023-08-14T08:07:01.734Z,18.39
2023-08-14T08:14:02.005Z,18.58
2023-08-14T08:21:01.700Z,18.58
2023-08-14T08:28:02.150Z,18.64
2023-08-14T08:35:01.501Z,18.64
2023-08-14T08:42:02.256Z,18.77
2023-08-14T08:49:01.693Z,18.77
2023-08-14T08:56:02.035Z,18.86
2023-08-14T09:00:01.397Z,18.86
2023-08-14T09:07:02.263Z,19.13
2023-08-14T09:14:01.895Z,19.13
2023-08-14T09:21:01.692Z,19.34
2023-08-14T09:28:01.734Z,19.34
2023-08-14T09:35:01.649Z,19.47
2023-08-14T09:42:01.292Z,19.7
2023-08-14T09:49:01.766Z,19.7
2023-08-14T09:56:06.543Z,19.92
2023-08-14T10:00:02.113Z,19.92
2023-08-14T10:07:02.175Z,19.92
2023-08-14T10:14:01.533Z,20.13
2023-08-14T10:21:01.672Z,20.14
2023-08-14T10:28:01.684Z,20.14
2023-08-14T10:35:01.752Z,20.46
2023-08-14T10:42:01.818Z,20.46
2023-08-14T10:49:01.910Z,20.42
2023-08-14T10:56:02.035Z,20.42
2023-08-14T11:00:01.382Z,20.57
2023-08-14T11:07:02.231Z,20.57
2023-08-14T11:14:01.691Z,20.78
2023-08-14T11:21:10.474Z,20.78
2023-08-14T11:28:02.061Z,20.91
2023-08-14T11:35:01.486Z,20.91
2023-08-14T11:42:02.243Z,21.17
2023-08-14T11:49:01.311Z,21.17
2023-08-14T11:56:01.611Z,21.26
2023-08-14T12:00:02.667Z,21.26
2023-08-14T12:07:01.776Z,21.54
2023-08-14T12:14:01.908Z,21.54
2023-08-14T12:21:01.840Z,21.65
2023-08-14T12:28:01.720Z,21.65
2023-08-14T12:35:01.640Z,21.82
2023-08-14T12:42:02.165Z,21.82
2023-08-14T12:49:01.990Z,21.83
2023-08-14T12:56:04.245Z,21.98
2023-08-14T13:00:02.122Z,21.98
2023-08-14T13:07:02.223Z,21.98
2023-08-14T13:14:01.705Z,22.16
2023-08-14T13:21:01.587Z,22.23
2023-08-14T13:28:02.248Z,22.23
2023-08-14T13:35:01.658Z,22.19
2023-08-14T13:42:01.760Z,22.19
2023-08-14T13:49:01.965Z,22.31
2023-08-14T13:56:01.686Z,22.31
2023-08-14T14:00:02.044Z,22.41
2023-08-14T14:07:02.583Z,22.41
2023-08-14T14:14:01.410Z,22.5
2023-08-14T14:21:01.639Z,22.5
2023-08-14T14:28:02.198Z,22.61
2023-08-14T14:35:01.361Z,22.61
2023-08-14T14:42:02.076Z,22.67
2023-08-14T14:49:01.452Z,22.67
2023-08-14T14:56:02.229Z,22.67
2023-08-14T15:00:01.638Z,22.67
2023-08-14T15:07:02.257Z,22.75
2023-08-14T15:14:02.177Z,22.75
2023-08-14T15:21:01.796Z,22.83
2023-08-14T15:28:01.844Z,22.83
2023-08-14T15:35:02.124Z,22.89
2023-08-14T15:42:01.378Z,22.89
2023-08-14T15:49:01.765Z,22.92
2023-08-14T15:56:02.081Z,22.94
2023-08-14T16:00:01.418Z,22.94
2023-08-14T16:07:01.638Z,22.94
2023-08-14T16:14:02.291Z,22.93
2023-08-14T16:21:02.196Z,22.93
2023-08-14T16:28:01.942Z,23.01
2023-08-14T16:35:01.766Z,22.99
2023-08-14T16:42:01.319Z,22.99
2023-08-14T16:49:01.758Z,23.03
2023-08-14T16:56:01.556Z,23.03
2023-08-14T17:00:01.906Z,22.87
2023-08-14T17:07:01.867Z,22.87
2023-08-14T17:14:02.002Z,23.02
2023-08-14T17:21:02.161Z,23.02
2023-08-14T17:28:01.621Z,22.89
2023-08-14T17:35:01.320Z,22.89
2023-08-14T17:42:02.090Z,22.89
2023-08-14T17:49:01.724Z,22.89
2023-08-14T17:56:01.949Z,22.96
2023-08-14T18:00:01.334Z,22.96
2023-08-14T18:07:01.775Z,23.02
2023-08-14T18:14:01.652Z,23.02
2023-08-14T18:21:01.719Z,22.78
2023-08-14T18:28:01.575Z,22.78
2023-08-14T18:35:01.898Z,22.68
2023-08-14T18:42:01.636Z,22.68
2023-08-14T18:49:01.746Z,22.44
2023-08-14T18:56:01.631Z,22.13
2023-08-14T19:00:01.986Z,22.13
2023-08-14T19:07:02.227Z,22.13
2023-08-14T19:14:02.036Z,22.41
2023-08-14T19:21:01.425Z,22.41
2023-08-14T19:28:11.497Z,22.19
2023-08-14T19:35:01.855Z,21.97
2023-08-14T19:42:01.908Z,21.97
2023-08-14T19:49:01.461Z,21.95
2023-08-14T19:56:01.393Z,21.95
2023-08-14T20:00:01.850Z,22.02
2023-08-14T20:07:01.332Z,22.02
2023-08-14T20:14:01.536Z,21.95
2023-08-14T20:21:01.580Z,21.95
2023-08-14T20:28:01.871Z,21.87
2023-08-14T20:35:02.116Z,21.87
2023-08-14T20:42:01.608Z,21.79
2023-08-14T20:49:01.291Z,21.79
2023-08-14T20:56:01.591Z,21.7
2023-08-14T21:00:01.953Z,21.7
2023-08-14T21:07:01.845Z,21.69
2023-08-14T21:14:01.490Z,21.69
2023-08-14T21:21:02.216Z,21.55
2023-08-14T21:28:02.131Z,21.55
2023-08-14T21:35:01.537Z,21.56
2023-08-14T21:42:02.115Z,21.56
2023-08-14T21:49:02.104Z,21.51
2023-08-14T21:56:02.239Z,21.33
2023-08-14T22:00:01.582Z,21.33
2023-08-14T22:07:02.075Z,21.33
2023-08-14T22:14:01.353Z,21.36
2023-08-14T22:21:02.152Z,21.36
2023-08-14T22:28:01.464Z,21.25
2023-08-14T22:35:02.290Z,21.38
2023-08-14T22:42:02.019Z,21.38
2023-08-14T22:49:01.443Z,21.21
2023-08-14T22:56:01.742Z,21.21
2023-08-14T23:00:02.132Z,21.21
2023-08-14T23:07:01.558Z,21.09
2023-08-14T23:14:02.115Z,21.29
2023-08-14T23:21:01.558Z,21.29
2023-08-14T23:28:01.520Z,21.3
2023-08-14T23:35:02.030Z,21.3
2023-08-14T23:42:01.478Z,21.13
2023-08-14T23:49:01.749Z,21.13
2023-08-14T23:56:02.138Z,21.19
